Weather observations for the past three days for
Jefferson - Ashe County Airport
Metric (Imperial)
Date Time (edt) Wind (kph) Vis. (km) Weather Sky Cond. Temperature (ºC) Relative Humidity Wind Chill (°C) Heat Index (°C) Pressure Precipitation (cm)
Air Dwpt 6 hour altimeter (cm) sea level (mb) 1 hr 3 hr 6 hr
Max. Min.
05 14:35 S 22 G 33 16.09 Fair CLR 19.6 2.9 33% 76.23 0.0
05 14:15 SE 15 G 26 16.09 Fair CLR 19.8 3 33% 76.25 0.0
05 13:55 SE 17 G 26 16.09 Fair CLR 18.7 2.8 19.8 10.5 35% 76.28 0.0
05 13:35 SE 9 G 30 16.09 Fair CLR 19.4 4.9 39% 76.25 0.0
05 13:15 S 17 G 28 16.09 Fair CLR 19.3 5.9 42% 76.28 0.0
05 12:55 S 15 G 28 16.09 Fair CLR 18.9 7.4 47% 76.28 0.0
05 12:35 SE 11 16.09 Fair CLR 18.5 7.3 48% 76.3 0.0
05 12:15 SE 11 16.09 Fair CLR 19.2 6.7 44% 76.33 0.0
05 11:55 NW 9 16.09 Fair CLR 19 3.1 35% 76.33 0.0
05 11:35 Calm 16.09 Fair CLR 18.5 5.7 43% 76.33 0.0
05 11:15 W 7 16.09 Fair CLR 18.3 4.3 40% 76.33 0.0
05 10:55 E 9 16.09 Fair CLR 18.3 5.9 44% 76.35 0.0
05 10:35 SE 7 16.09 Fair CLR 17.6 5.5 45% 76.33 0.0
05 10:15 Calm 16.09 Fair CLR 16.3 4.8 47% 76.33 0.0
05 09:55 SE 7 16.09 Fair CLR 15.7 5.2 50% 76.3 0.0
05 09:35 E 7 16.09 Fair CLR 14.8 6.4 57% 76.3 0.0
05 09:15 E 6 16.09 Fair CLR 14.9 7.1 60% 76.3 0.0
05 08:55 Calm 16.09 Fair CLR 14.1 7.6 65% 76.3 0.0
05 08:35 Calm 16.09 Fair CLR 12.7 5.1 60% 76.3 0.0
05 08:15 Calm 16.09 Fair CLR 12.2 4.5 60% 76.3 0.0
05 07:55 Calm 16.09 Fair CLR 10.6 4 14 9.8 64% 76.28 0.0
05 07:35 S 6 16.09 Fair CLR 10.5 3.8 64% 76.28 0.0
05 07:15 S 6 16.09 Fair CLR 10.4 3.7 63% 76.28 0.0
05 06:55 Calm 16.09 Fair CLR 9.8 3.8 67% 76.25 0.0
05 06:35 Calm 16.09 Fair CLR 10.3 3.8 64% 76.25 0.0
05 06:15 SW 6 16.09 Fair CLR 10.6 3.8 63% 76.25 0.0
05 05:55 SE 6 16.09 Fair CLR 10.6 3.8 63% 76.25 0.0
05 05:35 S 6 16.09 Fair CLR 11.7 3.6 58% 76.23 0.0
05 05:15 Calm 16.09 Fair CLR 12 3.6 57% 76.23 0.0
05 04:55 Calm 16.09 Fair CLR 11 3.8 61% 76.23 0.0
05 04:35 Calm 16.09 Fair CLR 11.7 3.8 59% 76.23 0.0
05 04:15 W 6 16.09 Fair CLR 12.3 3.7 56% 76.23 0.0
05 03:55 SW 9 16.09 Fair CLR 13 3.7 54% 76.2 0.0
05 03:35 W 11 16.09 Fair CLR 12.6 3.8 55% 76.17 0.0
05 03:15 W 6 16.09 Fair CLR 13 3.9 54% 76.17 0.0
05 02:55 Calm 16.09 Fair CLR 11 4 62% 76.17 0.0
05 02:35 NW 6 16.09 Fair CLR 13 4 55% 76.17 0.0
05 02:15 S 7 16.09 Fair CLR 13.8 4 52% 76.17 0.0
05 01:55 S 15 16.09 Fair CLR 13.6 4 16.6 11.9 53% 76.17 0.0
05 01:35 S 11 16.09 Fair CLR 13.1 4 54% 76.17 0.0
05 01:15 S 6 16.09 Fair CLR 12.6 3.9 56% 76.17 0.0
05 00:55 S 7 16.09 Fair CLR 12.1 3.7 57% 76.17 0.0
05 00:35 S 7 16.09 Fair CLR 12.4 3.4 54% 76.17 0.0
05 00:15 Calm 16.09 Fair CLR 12.4 3.1 53% 76.17 0.0
04 23:55 Calm 16.09 Fair CLR 12.5 2.7 52% 76.2 0.0
04 23:35 Calm 16.09 Fair CLR 12.9 2.6 50% 76.23 0.0
04 23:15 Calm 16.09 Fair CLR 12.4 2.5 51% 76.23 0.0
04 22:55 SE 6 16.09 Fair CLR 13 2.4 49% 76.25 0.0
04 22:35 Calm 16.09 Fair CLR 13.3 2.5 48% 76.25 0.0
04 22:15 Calm 16.09 Fair CLR 13.5 2.6 48% 76.25 0.0
04 21:55 S 6 16.09 Fair CLR 13.4 3 50% 76.25 0.0
04 21:35 SE 7 16.09 Fair CLR 14 3.3 49% 76.23 0.0
04 21:15 S 11 16.09 Fair CLR 14.4 3.7 49% 76.23 0.0
04 20:55 S 9 16.09 Fair CLR 14.4 4.1 50% 76.2 0.0
04 20:35 Calm 16.09 Fair CLR 15.2 4.2 48% 76.17 0.0
04 20:15 SE 6 16.09 Fair CLR 15.6 4.5 48% 76.17 0.0
04 19:55 S 6 16.09 Fair CLR 16.6 4.5 20.7 16.6 45% 76.17 0.0
04 19:35 S 7 16.09 Fair CLR 17.5 4.6 43% 76.15 0.0
04 19:15 S 9 16.09 Fair CLR 17.8 4.6 42% 76.15 0.0
04 18:55 S 9 16.09 Fair CLR 18.1 3.9 39% 76.15 0.0
04 18:35 S 13 16.09 Partly Cloudy SCT080 SCT090 18.5 4.6 40% 76.15 0.0
04 18:15 SE 7 16.09 Mostly Cloudy SCT070 BKN090 18.7 4.6 40% 76.15 0.0
04 17:55 S 6 16.09 Mostly Cloudy SCT070 BKN080 18.5 4.9 41% 76.15 0.0
04 17:35 S 15 16.09 Mostly Cloudy SCT070 BKN080 19 4.9 40% 76.15 0.0
04 17:15 S 7 16.09 Mostly Cloudy SCT060 BKN080 19.8 5.2 39% 76.17 0.0
04 16:55 S 7 16.09 Mostly Cloudy SCT060 BKN070 19.3 5.8 41% 76.17 0.0
04 16:35 SE 7 16.09 Partly Cloudy SCT060 19.8 5.8 40% 76.17 0.0
04 16:15 W 13 G 30 16.09 Fair CLR 19.8 5.6 40% 76.17 0.0
04 15:55 W 15 G 26 16.09 Fair CLR 19.7 5.5 40% 76.2 0.0
04 15:35 W 13 G 28 16.09 Fair CLR 19.1 5.5 41% 76.23 0.0
04 15:15 W 20 G 31 16.09 Fair CLR 18.7 5.6 42% 76.25 0.0
04 14:55 W 22 16.09 Fair CLR 18.4 5.6 43% 76.25 0.0
04 14:35 W 26 G 43 16.09 Fair CLR 18.1 5.6 44% 76.28 0.0
04 14:15 W 19 G 26 16.09 Partly Cloudy SCT050 17.5 5.8 46% 76.3 0.0
04 13:55 W 24 G 39 16.09 Partly Cloudy SCT050 17.6 5.2 17.8 8.1 44% 76.3 0.0
04 13:35 W 11 G 39 16.09 Partly Cloudy SCT049 17.3 4.8 44% 76.3 0.0
04 13:15 SW 15 G 31 16.09 Mostly Cloudy BKN049 17.5 4.2 42% 76.33 0.0
04 12:55 W 20 G 33 16.09 Fair CLR 17.4 3.8 41% 76.33 0.0
04 12:35 W 24 G 35 16.09 Fair CLR 16.4 3.9 44% 76.33 0.0
04 12:15 W 7 G 26 16.09 Fair CLR 16 4.2 46% 76.33 0.0
04 11:55 W 11 16.09 Fair CLR 14 3.6 50% 76.33 0.0
04 11:35 W 13 16.09 Partly Cloudy SCT026 SCT038 SCT049 13 3.6 53% 76.38 0.0
04 11:15 SW 7 16.09 Mostly Cloudy SCT031 SCT046 BKN085 12.1 3.1 54% 76.4 0.0
04 10:55 W 20 G 35 16.09 Partly Cloudy SCT032 SCT039 SCT100 11.9 2.8 54% 76.45 0.0
04 10:35 NW 9 16.09 Overcast OVC039 12.7 1.7 47% 76.45 0.0
04 10:15 W 15 G 31 16.09 Mostly Cloudy BKN039 12.3 1.4 48% 76.43 0.0
04 09:55 W 30 G 39 16.09 Partly Cloudy SCT080 SCT100 12 1.2 48% 76.4 0.0
04 09:35 W 17 16.09 Fair CLR 11.9 1 48% 76.4 0.0
04 09:15 W 13 16.09 Fair CLR 11.9 0.7 47% 76.38 0.0
04 08:55 Calm 16.09 Fair CLR 11.5 0.8 48% 76.38 0.0
04 08:35 Calm 16.09 Fair CLR 10.6 0.9 51% 76.35 0.0
04 08:15 Calm 16.09 Partly Cloudy SCT065 9.3 1 56% 76.35 0.0
04 07:55 Calm 16.09 Mostly Cloudy BKN065 8.4 1.3 9.4 5.8 61% 76.35 0.0
04 07:35 S 6 16.09 Fair CLR 8 0.8 61% 76.33 0.0
04 07:15 Calm 16.09 Partly Cloudy SCT080 8.3 0 56% 76.3 0.0
04 06:55 Calm 16.09 Mostly Cloudy BKN080 8.3 0 56% 76.33 0.0
04 06:35 Calm 16.09 Partly Cloudy SCT080 7.8 0 58% 76.33 0.0
04 06:15 Calm 16.09 Fair CLR 8.2 0 57% 76.33 0.0
04 05:55 Calm 16.09 Fair CLR 8.1 0 57% 76.3 0.0
04 05:35 W 11 16.09 Fair CLR 8.7 0 55% 7 76.3 0.0
04 05:15 W 15 G 26 16.09 Fair CLR 9.1 0 53% 7 76.3 0.0
04 04:55 W 20 16.09 Partly Cloudy SCT120 9.2 0 53% 7 76.3 0.0
04 04:35 W 20 G 33 16.09 Mostly Cloudy BKN120 9.3 -0.2 52% 7 76.3 0.0
04 04:15 W 17 16.09 Overcast OVC120 9.1 -0.6 51% 7 76.28 0.0
04 03:55 W 15 16.09 Mostly Cloudy BKN110 8.5 -0.8 52% 6 76.28 0.0
04 03:35 Calm 16.09 Fair CLR 6.7 -1.6 56% 76.3 0.0
04 03:15 Calm 16.09 Fair CLR 6.8 -1.8 55% 76.3 0.0
04 02:55 Calm 16.09 Fair CLR 5.9 -2 57% 76.33 0.0
04 02:15 Calm 16.09 Fair CLR 7.5 -2.8 48% 76.35 0.0
04 01:55 Calm 16.09 Fair CLR 8.2 -3.1 11.9 7.2 45% 76.33 0.0
04 01:35 W 6 16.09 Fair CLR 7.9 -4.2 42% 76.33 0.0
04 01:15 Calm 16.09 Fair CLR 7.5 -4.3 43% 76.35 0.0
04 00:55 Calm 16.09 Fair CLR 7.4 -4.7 42% 76.35 0.0
04 00:35 Calm 16.09 Partly Cloudy SCT120 8.3 -5.1 39% 76.35 0.0
04 00:15 Calm 16.09 Partly Cloudy SCT120 7.8 -4.6 41% 76.35 0.0
03 23:55 Calm 16.09 Fair CLR 8.6 -5 38% 76.35 0.0
03 23:35 Calm 16.09 Fair CLR 8.4 -4.2 41% 76.35 0.0
03 23:15 Calm 16.09 Fair CLR 9.5 -4.8 36% 76.33 0.0
03 22:55 Calm 16.09 Fair CLR 8.2 -4.2 42% 76.35 0.0
03 22:35 Calm 16.09 Fair CLR 9.4 -4.3 38% 76.35 0.0
03 22:15 W 6 16.09 Fair CLR 9.5 -4.5 37% 76.35 0.0
03 21:55 Calm 16.09 Fair CLR 8.5 -5 38% 76.33 0.0
03 21:35 W 7 16.09 Fair CLR 9.8 -5.5 34% 9 76.3 0.0
03 21:15 W 7 16.09 Fair CLR 10.2 -5.7 32% 76.3 0.0
03 20:55 W 11 16.09 Fair CLR 10.6 -6.3 30% 76.28 0.0
03 20:35 W 11 16.09 Fair CLR 11 -6.5 29% 76.28 0.0
03 20:15 W 11 16.09 Fair CLR 11.4 -7 27% 76.28 0.0
03 19:55 W 15 16.09 Fair CLR 12 -7.1 14.1 10.8 26% 76.28 0.0
03 19:35 W 17 16.09 Fair CLR 12.4 -7.2 25% 76.28 0.0
03 19:15 W 11 16.09 Fair CLR 12.8 -7.5 24% 76.25 0.0
03 18:55 W 15 16.09 Fair CLR 13.2 -8.4 22% 76.25 0.0
03 18:35 W 13 16.09 Fair CLR 13.2 -9 21% 76.28 0.0
03 18:15 W 19 G 26 16.09 Fair CLR 13.2 -9.6 20% 76.28 0.0
03 17:55 W 15 G 26 16.09 Fair CLR 14.1 -8.6 20% 76.28 0.0
03 17:35 SW 7 G 28 16.09 Fair CLR 13.6 -7.9 22% 76.28 0.0
03 17:15 W 13 16.09 Fair CLR 13.2 -7.1 24% 76.3 0.0
03 16:55 W 26 16.09 Fair CLR 13.3 -6.8 24% 76.3 0.0
03 16:35 W 17 G 30 16.09 Fair CLR 13.2 -5.9 26% 76.3 0.0
03 16:15 W 19 G 26 16.09 Fair CLR 13.4 -6.3 25% 76.3 0.0
03 15:55 W 15 G 28 16.09 Fair CLR 13.1 -7.9 23% 76.33 0.0
03 15:35 W 15 G 28 16.09 Fair CLR 12.7 -8 23% 76.35 0.0
03 15:15 W 20 G 30 16.09 Fair CLR 12.3 -9 22% 76.38 0.0
03 14:55 W 19 G 33 16.09 Fair CLR 12.2 -9.3 22% 76.38 0.0
03 14:35 W 17 G 30 16.09 Fair CLR 11.8 -8.3 24% 76.4 0.0
03 14:15 W 11 16.09 Fair CLR 11.4 -7.8 25% 76.4 0.0
03 13:55 SW 17 16.09 Fair CLR 10.8 -7.4 11.5 2.5 27% 76.4 0.0
03 13:40 W 17 G 26 16.09 Fair CLR 11.5 -7 27% 76.4 0.0
03 13:15 W 19 16.09 Fair CLR 10.3 -7.8 27% 76.43 0.0
03 12:55 W 19 G 28 16.09 Fair CLR 9.9 -9.7 24% 8 76.45 0.0
03 12:35 W 19 G 31 16.09 Fair CLR 9.4 -9.7 25% 7 76.48 0.0
03 12:15 W 22 16.09 Fair CLR 8.8 -9.1 27% 6 76.48 0.0
03 11:55 NW 11 G 30 16.09 Fair CLR 8.8 -8.7 28% 7 76.5 0.0
03 11:35 NW 15 16.09 Fair CLR 7.5 -8.7 31% 5 76.5 0.0
03 11:15 NW 19 16.09 Fair CLR 7.1 -9.1 31% 4 76.48 0.0
03 10:55 NW 19 G 30 16.09 Fair CLR 6.5 -8.7 33% 3 76.48 0.0
03 10:35 NW 22 G 31 16.09 Fair CLR 6.1 -8.7 34% 3 76.48 0.0
03 10:15 NW 17 G 33 16.09 Fair CLR 5.6 -8.2 37% 3 76.48 0.0
03 09:55 NW 24 G 35 16.09 Fair CLR 5 -8.1 39% 1 76.48 0.0
03 09:35 NW 24 G 33 16.09 Fair CLR 4.5 -7.4 42% 0 76.45 0.0
03 09:15 NW 13 16.09 Fair CLR 4 -4.9 53% 1 76.45 0.0
03 08:55 NW 22 G 35 16.09 Fair CLR 3.2 -4.5 57% -1 76.45 0.0
03 08:35 NW 15 G 26 16.09 Fair CLR 2.8 -4 61% -1 76.45 0.0
03 08:15 NW 11 16.09 Fair CLR 2.6 -3.6 64% -0 76.43 0.0
03 07:55 NW 13 G 30 16.09 Fair CLR 2.4 -3.8 3.7 1.8 64% -1 76.4 0.0
03 07:35 NW 13 16.09 Fair CLR 2.2 -3.5 66% -1 76.38 0.0
03 07:15 W 9 16.09 Fair CLR 2.1 -2.9 70% -0 76.38 0.0
03 06:55 W 13 16.09 Fair CLR 2 -2.7 71% -1 76.35 0.0
03 06:35 W 6 16.09 Fair CLR 2 -2.5 72% 76.35 0.0
03 06:15 W 9 16.09 Fair CLR 2.1 -2.6 71% -0 76.33 0.0
03 05:55 NW 7 16.09 Fair CLR 2.3 -2.7 70% 0 76.3 0.0
03 05:35 NW 11 16.09 Fair CLR 2.6 -2.8 68% -0 76.3 0.0
03 05:15 NW 17 G 28 16.09 Fair CLR 2.7 -2.8 67% -1 76.3 0.0
03 04:55 NW 9 16.09 Fair CLR 2.6 -2.6 69% 0 76.28 0.0
03 04:35 NW 7 16.09 Fair CLR 2.5 -2.3 71% 1 76.28 0.0
03 04:15 NW 15 G 26 16.09 Fair CLR 2.7 -2.3 70% -1 76.25 0.0
03 03:55 NW 9 G 30 16.09 Fair CLR 3 -2.5 68% 1 76.25 0.0
03 03:35 NW 17 G 30 16.09 Fair CLR 3 -2.5 68% -1 76.25 0.0
03 03:15 NW 11 G 28 16.09 Fair CLR 3.1 -2.5 67% 0 76.23 0.0
03 02:55 NW 9 16.09 Fair CLR 3.2 -2.5 67% 1 76.23 0.0
03 02:35 NW 15 G 26 16.09 Fair CLR 3.5 -2.5 65% 0 76.23 0.0
03 02:15 NW 9 16.09 Fair CLR 3.5 -2.4 66% 1 76.23 0.0
03 01:55 W 7 G 15 16.09 Partly Cloudy SCT038 3.7 -2.4 7.2 3.6 65% 2 76.23 0.0
03 01:35 NW 9 16.09 Mostly Cloudy BKN038 BKN049 4 -2.2 64% 2 76.23 0.0
03 01:15 W 6 16.09 Mostly Cloudy SCT038 BKN049 4 -2.3 64% 76.23 0.0
03 00:55 W 7 16.09 Fair CLR 4 -2.2 64% 2 76.2 0.0
03 00:35 NW 7 16.09 Partly Cloudy SCT060 4.1 -2.3 63% 3 76.17 0.0
03 00:15 NW 9 16.09 Mostly Cloudy BKN060 4.6 -2.5 60% 3 76.17 0.0
02 23:55 NW 11 16.09 Partly Cloudy SCT060 4.6 -2.6 60% 2 76.17 0.0
02 23:35 NW 7 16.09 Fair CLR 4.9 -2.6 59% 3 76.17 0.0
02 23:15 NW 11 16.09 Fair CLR 5 -2.7 58% 3 76.17 0.0
02 22:55 NW 15 16.09 Fair CLR 5 -2.5 59% 2 76.15 0.0
02 22:35 NW 11 16.09 Fair CLR 4.8 -2.6 59% 3 76.15 0.0
02 22:15 NW 11 16.09 Fair CLR 5.1 -2.6 58% 3 76.15 0.0
02 21:55 NW 7 16.09 Fair CLR 5.1 -2.7 57% 4 76.12 0.0
02 21:35 NW 11 16.09 Fair CLR 5.7 -2.7 55% 4 76.12 0.0
02 21:15 NW 13 16.09 Fair CLR 5.9 -2.7 54% 3 76.12 0.0
02 20:55 NW 9 16.09 Fair CLR 6 -2.7 54% 4 76.1 0.0
02 20:35 NW 15 G 30 16.09 Fair CLR 6.3 -2.8 53% 4 76.1 0.0
02 20:15 NW 20 G 28 16.09 Partly Cloudy SCT050 SCT075 6.9 -3 50% 4 76.1 0.0
02 19:55 NW 20 G 28 16.09 Partly Cloudy SCT050 SCT065 SCT075 7.2 -2.7 11.6 7.2 50% 4 76.05 0.0
02 19:35 NW 15 G 26 16.09 Overcast BKN050 BKN065 OVC075 7.8 -2.8 47% 6 76.05 0.0
02 19:15 NW 17 16.09 Mostly Cloudy SCT050 BKN065 8.2 -2.9 46% 6 76.05 0.0
02 18:55 W 15 G 28 16.09 Partly Cloudy SCT060 SCT070 8.6 -3.1 44% 6 76.05 0.0
02 18:35 NW 9 G 35 16.09 Partly Cloudy SCT050 SCT070 8.3 -3.3 44% 7 76.05 0.0
02 18:15 NW 26 G 39 16.09 Mostly Cloudy SCT050 BKN070 8.7 -3.2 43% 6 76.02 0.0
02 17:55 NW 20 G 28 16.09 Overcast BKN060 OVC070 9 -2.9 43% 6 76 0.0
02 17:35 NW 13 G 30 16.09 Overcast BKN060 OVC070 8.9 -3.4 42% 7 76 0.0
02 17:15 NW 19 G 33 16.09 Overcast OVC065 9.2 -3.4 41% 7 75.97 0.0
02 16:55 NW 22 G 30 16.09 Mostly Cloudy BKN060 BKN075 9.6 -3.2 41% 7 75.97 0.0
02 16:35 NW 19 G 31 16.09 Mostly Cloudy BKN060 10 -3.7 38% 8 75.95 0.0
02 16:15 NW 19 G 31 16.09 Overcast OVC060 11 -3.5 36% 75.97 0.0
02 15:55 NW 22 G 35 16.09 Mostly Cloudy BKN060 10.6 -3.4 38% 75.95 0.0
02 15:35 NW 19 G 30 16.09 Overcast BKN060 OVC075 11.6 -3.7 34% 75.97 0.0
02 15:15 NW 17 G 26 16.09 Partly Cloudy SCT060 10.8 -3.5 37% 75.97 0.0
02 14:55 NW 20 G 37 16.09 Partly Cloudy SCT060 11.2 -4.3 34% 75.97 0.0
Date Time (edt) Wind (kph) Vis. (km) Weather Sky Cond. Air Dwpt Max. Min. Relative Humidity Wind Chill (°C) Heat Index (°C) altimeter (cm) sea level (mb) 1 hr 3 hr 6 hr
6 hour
Temperature (ºC) Pressure Precipitation (cm)